sensor_id;sensor_type;location;lat;lon;timestamp;P1;durP1;ratioP1;P2;durP2;ratioP2
22883;SDS011;13386;24.786;110.488;2023-06-22T00:00:26;10.13;;;3.25;;
22883;SDS011;13386;24.786;110.488;2023-06-22T00:02:56;9.25;;;1.88;;
22883;SDS011;13386;24.786;110.488;2023-06-22T00:05:28;7.15;;;1.77;;
22883;SDS011;13386;24.786;110.488;2023-06-22T00:07:58;3.28;;;1.80;;
22883;SDS011;13386;24.786;110.488;2023-06-22T00:10:28;6.55;;;1.80;;
22883;SDS011;13386;24.786;110.488;2023-06-22T00:12:58;7.55;;;2.28;;
22883;SDS011;13386;24.786;110.488;2023-06-22T00:15:28;10.40;;;1.70;;
22883;SDS011;13386;24.786;110.488;2023-06-22T00:17:58;6.20;;;1.50;;
22883;SDS011;13386;24.786;110.488;2023-06-22T00:20:31;2.88;;;1.20;;
22883;SDS011;13386;24.786;110.488;2023-06-22T00:23:04;5.95;;;1.27;;
22883;SDS011;13386;24.786;110.488;2023-06-22T00:25:35;3.22;;;1.10;;
22883;SDS011;13386;24.786;110.488;2023-06-22T00:28:05;2.85;;;1.20;;
22883;SDS011;13386;24.786;110.488;2023-06-22T00:30:35;5.05;;;0.93;;
22883;SDS011;13386;24.786;110.488;2023-06-22T00:33:06;6.55;;;1.50;;
22883;SDS011;13386;24.786;110.488;2023-06-22T00:35:37;3.50;;;0.88;;
22883;SDS011;13386;24.786;110.488;2023-06-22T00:38:09;1.35;;;0.70;;
22883;SDS011;13386;24.786;110.488;2023-06-22T00:40:39;3.75;;;0.80;;
22883;SDS011;13386;24.786;110.488;2023-06-22T00:43:09;1.63;;;0.70;;
22883;SDS011;13386;24.786;110.488;2023-06-22T00:45:39;4.57;;;0.90;;
22883;SDS011;13386;24.786;110.488;2023-06-22T00:48:10;2.78;;;0.80;;
22883;SDS011;13386;24.786;110.488;2023-06-22T00:50:43;4.05;;;0.88;;
22883;SDS011;13386;24.786;110.488;2023-06-22T00:53:15;2.42;;;1.13;;
22883;SDS011;13386;24.786;110.488;2023-06-22T00:55:45;3.65;;;1.10;;
22883;SDS011;13386;24.786;110.488;2023-06-22T00:58:18;3.17;;;1.13;;
22883;SDS011;13386;24.786;110.488;2023-06-22T01:00:49;1.80;;;0.82;;
22883;SDS011;13386;24.786;110.488;2023-06-22T01:03:21;3.08;;;1.00;;
22883;SDS011;13386;24.786;110.488;2023-06-22T01:05:53;4.88;;;1.10;;
22883;SDS011;13386;24.786;110.488;2023-06-22T01:08:30;4.28;;;1.00;;
22883;SDS011;13386;24.786;110.488;2023-06-22T01:11:01;6.03;;;0.95;;
22883;SDS011;13386;24.786;110.488;2023-06-22T01:13:36;1.08;;;0.70;;
22883;SDS011;13386;24.786;110.488;2023-06-22T01:16:08;5.20;;;1.27;;
22883;SDS011;13386;24.786;110.488;2023-06-22T01:18:41;2.45;;;1.00;;
22883;SDS011;13386;24.786;110.488;2023-06-22T01:21:14;3.88;;;1.05;;
22883;SDS011;13386;24.786;110.488;2023-06-22T01:23:50;6.22;;;2.45;;
22883;SDS011;13386;24.786;110.488;2023-06-22T01:26:25;2.92;;;1.30;;
22883;SDS011;13386;24.786;110.488;2023-06-22T01:29:00;2.22;;;1.00;;
22883;SDS011;13386;24.786;110.488;2023-06-22T01:31:31;3.25;;;1.15;;
22883;SDS011;13386;24.786;110.488;2023-06-22T01:34:02;3.35;;;1.30;;
22883;SDS011;13386;24.786;110.488;2023-06-22T01:36:39;7.60;;;3.42;;
22883;SDS011;13386;24.786;110.488;2023-06-22T01:39:10;3.80;;;1.33;;
22883;SDS011;13386;24.786;110.488;2023-06-22T01:41:41;4.43;;;1.40;;
22883;SDS011;13386;24.786;110.488;2023-06-22T01:44:17;5.77;;;1.27;;
22883;SDS011;13386;24.786;110.488;2023-06-22T01:46:49;1.77;;;0.95;;
22883;SDS011;13386;24.786;110.488;2023-06-22T01:49:20;3.30;;;1.10;;
22883;SDS011;13386;24.786;110.488;2023-06-22T01:51:50;2.78;;;1.30;;
22883;SDS011;13386;24.786;110.488;2023-06-22T01:54:21;3.95;;;1.45;;
22883;SDS011;13386;24.786;110.488;2023-06-22T01:56:51;8.10;;;1.60;;
22883;SDS011;13386;24.786;110.488;2023-06-22T01:59:25;1.75;;;1.00;;
22883;SDS011;13386;24.786;110.488;2023-06-22T02:01:59;7.53;;;1.50;;
22883;SDS011;13386;24.786;110.488;2023-06-22T02:07:00;3.25;;;1.27;;
22883;SDS011;13386;24.786;110.488;2023-06-22T02:09:33;6.50;;;1.90;;
22883;SDS011;13386;24.786;110.488;2023-06-22T02:12:05;5.18;;;1.40;;
22883;SDS011;13386;24.786;110.488;2023-06-22T02:14:39;3.42;;;1.60;;
22883;SDS011;13386;24.786;110.488;2023-06-22T02:17:10;6.90;;;1.48;;
22883;SDS011;13386;24.786;110.488;2023-06-22T02:19:41;5.72;;;1.70;;
22883;SDS011;13386;24.786;110.488;2023-06-22T02:22:13;5.53;;;1.88;;
22883;SDS011;13386;24.786;110.488;2023-06-22T02:24:45;4.18;;;1.13;;
22883;SDS011;13386;24.786;110.488;2023-06-22T02:27:15;7.28;;;2.10;;
22883;SDS011;13386;24.786;110.488;2023-06-22T02:29:50;2.72;;;1.13;;
22883;SDS011;13386;24.786;110.488;2023-06-22T02:32:20;2.15;;;1.13;;
22883;SDS011;13386;24.786;110.488;2023-06-22T02:34:50;7.35;;;1.90;;
22883;SDS011;13386;24.786;110.488;2023-06-22T02:37:20;4.50;;;1.00;;
22883;SDS011;13386;24.786;110.488;2023-06-22T02:39:51;2.70;;;1.20;;
22883;SDS011;13386;24.786;110.488;2023-06-22T02:42:22;2.83;;;1.25;;
22883;SDS011;13386;24.786;110.488;2023-06-22T02:45:01;4.13;;;1.20;;
22883;SDS011;13386;24.786;110.488;2023-06-22T02:47:34;3.58;;;1.20;;
22883;SDS011;13386;24.786;110.488;2023-06-22T02:50:05;2.88;;;1.13;;
22883;SDS011;13386;24.786;110.488;2023-06-22T02:52:36;4.57;;;1.08;;
22883;SDS011;13386;24.786;110.488;2023-06-22T02:55:07;3.80;;;1.00;;
22883;SDS011;13386;24.786;110.488;2023-06-22T02:57:38;4.28;;;1.58;;
22883;SDS011;13386;24.786;110.488;2023-06-22T03:00:13;8.20;;;2.22;;
22883;SDS011;13386;24.786;110.488;2023-06-22T03:02:47;7.38;;;1.52;;
22883;SDS011;13386;24.786;110.488;2023-06-22T03:05:19;8.93;;;3.28;;
22883;SDS011;13386;24.786;110.488;2023-06-22T03:07:53;4.38;;;1.20;;
22883;SDS011;13386;24.786;110.488;2023-06-22T03:10:24;5.57;;;1.20;;
22883;SDS011;13386;24.786;110.488;2023-06-22T03:12:54;4.25;;;1.33;;
22883;SDS011;13386;24.786;110.488;2023-06-22T03:15:30;3.83;;;1.80;;
22883;SDS011;13386;24.786;110.488;2023-06-22T03:18:01;3.67;;;1.50;;
22883;SDS011;13386;24.786;110.488;2023-06-22T03:20:32;3.92;;;1.17;;
22883;SDS011;13386;24.786;110.488;2023-06-22T03:23:05;4.25;;;1.30;;
22883;SDS011;13386;24.786;110.488;2023-06-22T03:25:35;1.98;;;1.20;;
22883;SDS011;13386;24.786;110.488;2023-06-22T03:28:06;4.15;;;1.30;;
22883;SDS011;13386;24.786;110.488;2023-06-22T03:30:38;1.95;;;1.08;;
22883;SDS011;13386;24.786;110.488;2023-06-22T03:33:09;2.20;;;1.23;;
22883;SDS011;13386;24.786;110.488;2023-06-22T03:35:40;16.13;;;3.88;;
22883;SDS011;13386;24.786;110.488;2023-06-22T03:38:11;9.88;;;1.75;;
22883;SDS011;13386;24.786;110.488;2023-06-22T03:40:42;4.43;;;1.30;;
22883;SDS011;13386;24.786;110.488;2023-06-22T03:43:12;5.35;;;2.15;;
22883;SDS011;13386;24.786;110.488;2023-06-22T03:45:44;3.85;;;1.60;;
22883;SDS011;13386;24.786;110.488;2023-06-22T03:48:14;4.03;;;1.48;;
22883;SDS011;13386;24.786;110.488;2023-06-22T03:50:45;5.53;;;1.95;;
22883;SDS011;13386;24.786;110.488;2023-06-22T03:53:15;4.68;;;1.42;;
22883;SDS011;13386;24.786;110.488;2023-06-22T03:55:50;4.50;;;1.42;;
22883;SDS011;13386;24.786;110.488;2023-06-22T03:58:20;5.75;;;1.85;;
22883;SDS011;13386;24.786;110.488;2023-06-22T04:00:53;3.40;;;1.70;;
22883;SDS011;13386;24.786;110.488;2023-06-22T04:03:24;6.55;;;1.80;;
22883;SDS011;13386;24.786;110.488;2023-06-22T04:05:55;4.28;;;2.13;;
22883;SDS011;13386;24.786;110.488;2023-06-22T04:08:25;5.07;;;2.25;;
22883;SDS011;13386;24.786;110.488;2023-06-22T04:10:56;5.18;;;1.85;;
22883;SDS011;13386;24.786;110.488;2023-06-22T04:13:26;5.25;;;2.22;;
22883;SDS011;13386;24.786;110.488;2023-06-22T04:15:58;6.20;;;2.17;;
22883;SDS011;13386;24.786;110.488;2023-06-22T04:18:30;8.35;;;2.45;;
22883;SDS011;13386;24.786;110.488;2023-06-22T04:21:00;4.55;;;2.38;;
22883;SDS011;13386;24.786;110.488;2023-06-22T04:23:36;3.47;;;2.22;;
22883;SDS011;13386;24.786;110.488;2023-06-22T04:26:08;5.35;;;2.47;;
22883;SDS011;13386;24.786;110.488;2023-06-22T04:28:39;5.05;;;2.25;;
22883;SDS011;13386;24.786;110.488;2023-06-22T04:31:13;4.47;;;2.47;;
22883;SDS011;13386;24.786;110.488;2023-06-22T04:33:43;5.72;;;2.70;;
22883;SDS011;13386;24.786;110.488;2023-06-22T04:36:13;6.55;;;2.75;;
22883;SDS011;13386;24.786;110.488;2023-06-22T04:38:43;6.72;;;3.25;;
22883;SDS011;13386;24.786;110.488;2023-06-22T04:41:13;6.85;;;3.20;;
22883;SDS011;13386;24.786;110.488;2023-06-22T04:43:50;6.50;;;2.72;;
22883;SDS011;13386;24.786;110.488;2023-06-22T04:46:22;4.47;;;3.10;;
22883;SDS011;13386;24.786;110.488;2023-06-22T04:48:52;6.05;;;2.72;;
22883;SDS011;13386;24.786;110.488;2023-06-22T04:51:23;7.10;;;2.90;;
22883;SDS011;13386;24.786;110.488;2023-06-22T04:53:58;6.05;;;2.97;;
22883;SDS011;13386;24.786;110.488;2023-06-22T04:56:29;5.97;;;3.05;;
22883;SDS011;13386;24.786;110.488;2023-06-22T04:59:03;6.72;;;3.40;;
22883;SDS011;13386;24.786;110.488;2023-06-22T05:01:41;12.93;;;3.92;;
22883;SDS011;13386;24.786;110.488;2023-06-22T05:04:13;7.07;;;4.35;;
22883;SDS011;13386;24.786;110.488;2023-06-22T05:06:43;11.73;;;4.75;;
22883;SDS011;13386;24.786;110.488;2023-06-22T05:09:15;9.43;;;4.65;;
22883;SDS011;13386;24.786;110.488;2023-06-22T05:11:45;11.02;;;4.90;;
22883;SDS011;13386;24.786;110.488;2023-06-22T05:14:16;8.40;;;4.97;;
22883;SDS011;13386;24.786;110.488;2023-06-22T05:16:51;9.65;;;5.10;;
22883;SDS011;13386;24.786;110.488;2023-06-22T05:19:26;11.68;;;5.30;;
22883;SDS011;13386;24.786;110.488;2023-06-22T05:22:03;8.48;;;4.93;;
22883;SDS011;13386;24.786;110.488;2023-06-22T05:24:41;13.32;;;5.10;;
22883;SDS011;13386;24.786;110.488;2023-06-22T05:27:12;8.20;;;4.53;;
22883;SDS011;13386;24.786;110.488;2023-06-22T05:29:43;11.60;;;5.55;;
22883;SDS011;13386;24.786;110.488;2023-06-22T05:32:15;8.93;;;4.68;;
22883;SDS011;13386;24.786;110.488;2023-06-22T05:34:46;10.55;;;4.82;;
22883;SDS011;13386;24.786;110.488;2023-06-22T05:37:17;8.35;;;4.95;;
22883;SDS011;13386;24.786;110.488;2023-06-22T05:39:49;9.05;;;4.90;;
22883;SDS011;13386;24.786;110.488;2023-06-22T05:42:21;9.43;;;4.95;;
22883;SDS011;13386;24.786;110.488;2023-06-22T05:44:53;9.93;;;5.32;;
22883;SDS011;13386;24.786;110.488;2023-06-22T05:47:29;11.75;;;5.05;;
22883;SDS011;13386;24.786;110.488;2023-06-22T05:49:59;12.80;;;5.88;;
22883;SDS011;13386;24.786;110.488;2023-06-22T05:52:37;13.32;;;6.38;;
22883;SDS011;13386;24.786;110.488;2023-06-22T05:55:09;13.60;;;7.07;;
22883;SDS011;13386;24.786;110.488;2023-06-22T05:57:39;9.57;;;6.10;;
22883;SDS011;13386;24.786;110.488;2023-06-22T06:00:11;14.52;;;6.28;;
22883;SDS011;13386;24.786;110.488;2023-06-22T06:02:43;11.43;;;5.90;;
22883;SDS011;13386;24.786;110.488;2023-06-22T06:05:14;12.43;;;6.05;;
22883;SDS011;13386;24.786;110.488;2023-06-22T06:07:47;9.70;;;5.50;;
22883;SDS011;13386;24.786;110.488;2023-06-22T06:10:22;12.48;;;6.35;;
22883;SDS011;13386;24.786;110.488;2023-06-22T06:12:54;15.40;;;6.30;;
22883;SDS011;13386;24.786;110.488;2023-06-22T06:15:30;11.05;;;5.93;;
22883;SDS011;13386;24.786;110.488;2023-06-22T06:18:02;13.55;;;6.03;;
22883;SDS011;13386;24.786;110.488;2023-06-22T06:20:33;11.80;;;6.03;;
22883;SDS011;13386;24.786;110.488;2023-06-22T06:23:03;11.23;;;5.80;;
22883;SDS011;13386;24.786;110.488;2023-06-22T06:25:36;11.70;;;5.75;;
22883;SDS011;13386;24.786;110.488;2023-06-22T06:28:08;12.27;;;6.00;;
22883;SDS011;13386;24.786;110.488;2023-06-22T06:30:39;11.57;;;6.13;;
22883;SDS011;13386;24.786;110.488;2023-06-22T06:33:13;13.30;;;5.80;;
22883;SDS011;13386;24.786;110.488;2023-06-22T06:35:44;11.07;;;6.72;;
22883;SDS011;13386;24.786;110.488;2023-06-22T06:38:17;11.65;;;6.35;;
22883;SDS011;13386;24.786;110.488;2023-06-22T06:40:48;16.85;;;7.18;;
22883;SDS011;13386;24.786;110.488;2023-06-22T06:43:18;15.23;;;6.68;;
22883;SDS011;13386;24.786;110.488;2023-06-22T06:45:49;10.68;;;6.03;;
22883;SDS011;13386;24.786;110.488;2023-06-22T06:48:23;13.27;;;6.50;;
22883;SDS011;13386;24.786;110.488;2023-06-22T06:50:53;12.20;;;6.68;;
22883;SDS011;13386;24.786;110.488;2023-06-22T06:53:23;14.13;;;7.18;;
22883;SDS011;13386;24.786;110.488;2023-06-22T06:55:58;17.15;;;7.38;;
22883;SDS011;13386;24.786;110.488;2023-06-22T06:58:30;13.68;;;7.65;;
22883;SDS011;13386;24.786;110.488;2023-06-22T07:01:02;18.40;;;7.30;;
22883;SDS011;13386;24.786;110.488;2023-06-22T07:03:36;14.18;;;7.18;;
22883;SDS011;13386;24.786;110.488;2023-06-22T07:06:09;17.92;;;8.25;;
22883;SDS011;13386;24.786;110.488;2023-06-22T07:08:41;13.93;;;6.78;;
22883;SDS011;13386;24.786;110.488;2023-06-22T07:11:13;13.02;;;6.85;;
22883;SDS011;13386;24.786;110.488;2023-06-22T07:13:43;15.00;;;6.13;;
22883;SDS011;13386;24.786;110.488;2023-06-22T07:16:13;12.75;;;6.05;;
22883;SDS011;13386;24.786;110.488;2023-06-22T07:18:49;14.48;;;6.57;;
22883;SDS011;13386;24.786;110.488;2023-06-22T07:21:21;11.93;;;6.10;;
22883;SDS011;13386;24.786;110.488;2023-06-22T07:23:52;16.77;;;6.40;;
22883;SDS011;13386;24.786;110.488;2023-06-22T07:26:24;13.95;;;5.82;;
22883;SDS011;13386;24.786;110.488;2023-06-22T07:28:54;9.05;;;3.80;;
22883;SDS011;13386;24.786;110.488;2023-06-22T07:31:26;11.90;;;4.88;;
22883;SDS011;13386;24.786;110.488;2023-06-22T07:33:58;8.90;;;4.30;;
22883;SDS011;13386;24.786;110.488;2023-06-22T07:36:33;10.82;;;4.75;;
22883;SDS011;13386;24.786;110.488;2023-06-22T07:39:16;11.13;;;4.70;;
22883;SDS011;13386;24.786;110.488;2023-06-22T07:41:49;13.65;;;4.18;;
22883;SDS011;13386;24.786;110.488;2023-06-22T07:44:19;14.68;;;4.15;;
22883;SDS011;13386;24.786;110.488;2023-06-22T07:47:01;13.25;;;5.07;;
22883;SDS011;13386;24.786;110.488;2023-06-22T07:49:33;15.60;;;5.00;;
22883;SDS011;13386;24.786;110.488;2023-06-22T07:52:03;8.63;;;4.65;;
22883;SDS011;13386;24.786;110.488;2023-06-22T07:54:39;12.02;;;5.18;;
22883;SDS011;13386;24.786;110.488;2023-06-22T07:57:09;16.60;;;5.22;;
22883;SDS011;13386;24.786;110.488;2023-06-22T07:59:40;12.60;;;5.07;;
22883;SDS011;13386;24.786;110.488;2023-06-22T08:02:12;18.50;;;5.40;;
22883;SDS011;13386;24.786;110.488;2023-06-22T08:04:44;26.63;;;7.43;;
22883;SDS011;13386;24.786;110.488;2023-06-22T08:07:16;9.82;;;5.07;;
22883;SDS011;13386;24.786;110.488;2023-06-22T08:09:49;11.93;;;4.70;;
22883;SDS011;13386;24.786;110.488;2023-06-22T08:12:19;9.93;;;4.30;;
22883;SDS011;13386;24.786;110.488;2023-06-22T08:14:54;9.73;;;4.32;;
22883;SDS011;13386;24.786;110.488;2023-06-22T08:17:25;11.80;;;4.82;;
22883;SDS011;13386;24.786;110.488;2023-06-22T08:22:59;10.18;;;5.15;;
22883;SDS011;13386;24.786;110.488;2023-06-22T08:25:35;11.75;;;5.18;;
22883;SDS011;13386;24.786;110.488;2023-06-22T08:28:06;11.00;;;5.78;;
22883;SDS011;13386;24.786;110.488;2023-06-22T08:30:38;9.77;;;5.13;;
22883;SDS011;13386;24.786;110.488;2023-06-22T08:33:13;10.90;;;5.05;;
22883;SDS011;13386;24.786;110.488;2023-06-22T08:35:43;14.85;;;5.78;;
22883;SDS011;13386;24.786;110.488;2023-06-22T08:38:22;12.20;;;5.85;;
22883;SDS011;13386;24.786;110.488;2023-06-22T08:40:58;11.85;;;5.88;;
22883;SDS011;13386;24.786;110.488;2023-06-22T08:43:28;14.70;;;6.40;;
22883;SDS011;13386;24.786;110.488;2023-06-22T08:46:01;14.30;;;6.78;;
22883;SDS011;13386;24.786;110.488;2023-06-22T08:48:34;13.98;;;6.57;;
22883;SDS011;13386;24.786;110.488;2023-06-22T08:51:04;13.77;;;7.47;;
22883;SDS011;13386;24.786;110.488;2023-06-22T08:53:37;17.50;;;9.25;;
22883;SDS011;13386;24.786;110.488;2023-06-22T08:56:11;21.20;;;8.57;;
22883;SDS011;13386;24.786;110.488;2023-06-22T08:58:41;13.75;;;7.40;;
22883;SDS011;13386;24.786;110.488;2023-06-22T09:01:15;15.75;;;7.70;;
22883;SDS011;13386;24.786;110.488;2023-06-22T09:03:45;13.02;;;7.10;;
22883;SDS011;13386;24.786;110.488;2023-06-22T09:06:21;14.52;;;7.35;;
22883;SDS011;13386;24.786;110.488;2023-06-22T09:08:53;13.82;;;7.55;;
22883;SDS011;13386;24.786;110.488;2023-06-22T09:11:26;16.95;;;7.50;;
22883;SDS011;13386;24.786;110.488;2023-06-22T09:13:59;18.60;;;8.23;;
22883;SDS011;13386;24.786;110.488;2023-06-22T09:16:31;18.00;;;7.80;;
22883;SDS011;13386;24.786;110.488;2023-06-22T09:19:02;19.80;;;9.73;;
22883;SDS011;13386;24.786;110.488;2023-06-22T09:21:34;18.05;;;8.18;;
22883;SDS011;13386;24.786;110.488;2023-06-22T09:24:06;23.70;;;12.45;;
22883;SDS011;13386;24.786;110.488;2023-06-22T09:26:41;24.92;;;11.82;;
22883;SDS011;13386;24.786;110.488;2023-06-22T09:29:11;21.27;;;9.70;;
22883;SDS011;13386;24.786;110.488;2023-06-22T09:31:41;18.10;;;8.77;;
22883;SDS011;13386;24.786;110.488;2023-06-22T09:34:14;16.92;;;8.18;;
22883;SDS011;13386;24.786;110.488;2023-06-22T09:36:47;17.35;;;8.35;;
22883;SDS011;13386;24.786;110.488;2023-06-22T09:39:32;22.60;;;9.77;;
22883;SDS011;13386;24.786;110.488;2023-06-22T09:42:04;16.35;;;8.20;;
22883;SDS011;13386;24.786;110.488;2023-06-22T09:44:35;11.20;;;6.70;;
22883;SDS011;13386;24.786;110.488;2023-06-22T09:47:06;15.75;;;6.57;;
22883;SDS011;13386;24.786;110.488;2023-06-22T09:49:38;14.75;;;6.70;;
22883;SDS011;13386;24.786;110.488;2023-06-22T09:52:08;12.57;;;6.78;;
22883;SDS011;13386;24.786;110.488;2023-06-22T09:54:44;15.00;;;6.90;;
22883;SDS011;13386;24.786;110.488;2023-06-22T09:57:15;14.45;;;6.80;;
22883;SDS011;13386;24.786;110.488;2023-06-22T09:59:47;13.32;;;6.57;;
22883;SDS011;13386;24.786;110.488;2023-06-22T10:02:19;13.00;;;6.47;;
22883;SDS011;13386;24.786;110.488;2023-06-22T10:04:50;14.60;;;7.22;;
22883;SDS011;13386;24.786;110.488;2023-06-22T10:07:21;16.55;;;7.25;;
22883;SDS011;13386;24.786;110.488;2023-06-22T10:10:01;12.90;;;7.40;;
22883;SDS011;13386;24.786;110.488;2023-06-22T10:12:32;17.35;;;8.13;;
22883;SDS011;13386;24.786;110.488;2023-06-22T10:15:04;15.57;;;7.43;;
22883;SDS011;13386;24.786;110.488;2023-06-22T10:17:34;13.18;;;7.07;;
22883;SDS011;13386;24.786;110.488;2023-06-22T10:20:06;16.60;;;7.40;;
22883;SDS011;13386;24.786;110.488;2023-06-22T10:22:39;16.55;;;8.07;;
22883;SDS011;13386;24.786;110.488;2023-06-22T10:25:14;19.70;;;7.97;;
22883;SDS011;13386;24.786;110.488;2023-06-22T10:27:44;22.25;;;8.13;;
22883;SDS011;13386;24.786;110.488;2023-06-22T10:30:16;17.67;;;8.43;;
22883;SDS011;13386;24.786;110.488;2023-06-22T10:32:46;16.65;;;7.40;;
22883;SDS011;13386;24.786;110.488;2023-06-22T10:35:16;20.23;;;8.38;;
22883;SDS011;13386;24.786;110.488;2023-06-22T10:37:47;21.00;;;8.60;;
22883;SDS011;13386;24.786;110.488;2023-06-22T10:40:23;18.92;;;8.13;;
22883;SDS011;13386;24.786;110.488;2023-06-22T10:42:53;19.50;;;7.93;;
22883;SDS011;13386;24.786;110.488;2023-06-22T10:45:23;17.75;;;8.30;;
22883;SDS011;13386;24.786;110.488;2023-06-22T10:48:00;26.55;;;8.98;;
22883;SDS011;13386;24.786;110.488;2023-06-22T10:50:30;26.10;;;8.60;;
22883;SDS011;13386;24.786;110.488;2023-06-22T10:53:01;18.30;;;8.80;;
22883;SDS011;13386;24.786;110.488;2023-06-22T10:55:35;16.58;;;8.52;;
22883;SDS011;13386;24.786;110.488;2023-06-22T10:58:07;17.77;;;9.23;;
22883;SDS011;13386;24.786;110.488;2023-06-22T11:00:37;19.10;;;8.63;;
22883;SDS011;13386;24.786;110.488;2023-06-22T11:03:08;22.10;;;8.93;;
22883;SDS011;13386;24.786;110.488;2023-06-22T11:05:38;20.63;;;8.80;;
22883;SDS011;13386;24.786;110.488;2023-06-22T11:08:08;16.90;;;8.18;;
22883;SDS011;13386;24.786;110.488;2023-06-22T11:10:40;17.73;;;8.10;;
22883;SDS011;13386;24.786;110.488;2023-06-22T11:13:10;21.58;;;8.50;;
22883;SDS011;13386;24.786;110.488;2023-06-22T11:15:41;15.63;;;7.43;;
22883;SDS011;13386;24.786;110.488;2023-06-22T11:18:11;19.55;;;8.02;;
22883;SDS011;13386;24.786;110.488;2023-06-22T11:20:42;12.07;;;5.50;;
22883;SDS011;13386;24.786;110.488;2023-06-22T11:23:12;15.48;;;5.40;;
22883;SDS011;13386;24.786;110.488;2023-06-22T11:25:44;13.07;;;4.90;;
22883;SDS011;13386;24.786;110.488;2023-06-22T11:28:17;9.88;;;4.50;;
22883;SDS011;13386;24.786;110.488;2023-06-22T11:30:47;10.40;;;4.03;;
22883;SDS011;13386;24.786;110.488;2023-06-22T11:33:18;8.65;;;3.95;;
22883;SDS011;13386;24.786;110.488;2023-06-22T11:35:48;9.00;;;3.80;;
22883;SDS011;13386;24.786;110.488;2023-06-22T11:38:18;7.72;;;3.65;;
22883;SDS011;13386;24.786;110.488;2023-06-22T11:40:51;8.13;;;3.50;;
22883;SDS011;13386;24.786;110.488;2023-06-22T11:43:22;10.55;;;3.70;;
22883;SDS011;13386;24.786;110.488;2023-06-22T11:45:52;8.05;;;3.33;;
22883;SDS011;13386;24.786;110.488;2023-06-22T11:48:25;6.55;;;3.30;;
22883;SDS011;13386;24.786;110.488;2023-06-22T11:50:56;10.73;;;3.28;;
22883;SDS011;13386;24.786;110.488;2023-06-22T11:53:26;6.63;;;3.05;;
22883;SDS011;13386;24.786;110.488;2023-06-22T11:55:58;11.02;;;3.33;;
22883;SDS011;13386;24.786;110.488;2023-06-22T11:58:29;5.15;;;2.83;;
22883;SDS011;13386;24.786;110.488;2023-06-22T12:00:59;7.25;;;3.25;;
22883;SDS011;13386;24.786;110.488;2023-06-22T12:03:30;9.25;;;3.42;;
22883;SDS011;13386;24.786;110.488;2023-06-22T12:08:36;9.13;;;3.08;;
22883;SDS011;13386;24.786;110.488;2023-06-22T12:11:08;8.77;;;3.05;;
22883;SDS011;13386;24.786;110.488;2023-06-22T12:13:41;12.05;;;3.20;;
22883;SDS011;13386;24.786;110.488;2023-06-22T12:16:13;9.18;;;3.30;;
22883;SDS011;13386;24.786;110.488;2023-06-22T12:18:44;7.90;;;2.80;;
22883;SDS011;13386;24.786;110.488;2023-06-22T12:21:14;9.30;;;3.00;;
22883;SDS011;13386;24.786;110.488;2023-06-22T12:23:48;6.05;;;2.90;;
22883;SDS011;13386;24.786;110.488;2023-06-22T12:26:20;13.82;;;2.97;;
22883;SDS011;13386;24.786;110.488;2023-06-22T12:28:51;6.25;;;2.88;;
22883;SDS011;13386;24.786;110.488;2023-06-22T12:31:21;7.97;;;2.63;;
22883;SDS011;13386;24.786;110.488;2023-06-22T12:33:51;6.57;;;2.72;;
22883;SDS011;13386;24.786;110.488;2023-06-22T12:36:21;6.00;;;2.42;;
22883;SDS011;13386;24.786;110.488;2023-06-22T12:38:51;9.50;;;2.90;;
22883;SDS011;13386;24.786;110.488;2023-06-22T12:41:23;8.70;;;2.63;;
22883;SDS011;13386;24.786;110.488;2023-06-22T12:43:57;5.53;;;2.50;;
22883;SDS011;13386;24.786;110.488;2023-06-22T12:46:29;8.90;;;2.60;;
22883;SDS011;13386;24.786;110.488;2023-06-22T12:49:05;9.82;;;2.45;;
22883;SDS011;13386;24.786;110.488;2023-06-22T12:51:39;5.97;;;2.38;;
22883;SDS011;13386;24.786;110.488;2023-06-22T12:54:16;6.45;;;2.70;;
22883;SDS011;13386;24.786;110.488;2023-06-22T12:56:50;7.32;;;2.80;;
22883;SDS011;13386;24.786;110.488;2023-06-22T12:59:21;9.97;;;2.70;;
22883;SDS011;13386;24.786;110.488;2023-06-22T13:01:51;7.85;;;3.20;;
22883;SDS011;13386;24.786;110.488;2023-06-22T13:04:22;9.70;;;3.28;;
22883;SDS011;13386;24.786;110.488;2023-06-22T13:06:52;12.95;;;3.85;;
22883;SDS011;13386;24.786;110.488;2023-06-22T13:09:22;9.05;;;3.42;;
22883;SDS011;13386;24.786;110.488;2023-06-22T13:11:54;13.25;;;3.28;;
22883;SDS011;13386;24.786;110.488;2023-06-22T13:14:25;11.32;;;3.10;;
22883;SDS011;13386;24.786;110.488;2023-06-22T13:16:57;12.68;;;3.22;;
22883;SDS011;13386;24.786;110.488;2023-06-22T13:19:31;15.02;;;3.55;;
22883;SDS011;13386;24.786;110.488;2023-06-22T13:22:02;11.40;;;3.00;;
22883;SDS011;13386;24.786;110.488;2023-06-22T13:24:34;11.13;;;2.88;;
22883;SDS011;13386;24.786;110.488;2023-06-22T13:27:09;9.48;;;3.00;;
22883;SDS011;13386;24.786;110.488;2023-06-22T13:29:39;9.38;;;2.83;;
22883;SDS011;13386;24.786;110.488;2023-06-22T13:32:09;7.85;;;2.60;;
22883;SDS011;13386;24.786;110.488;2023-06-22T13:34:43;9.93;;;2.30;;
22883;SDS011;13386;24.786;110.488;2023-06-22T13:37:13;6.65;;;2.22;;
22883;SDS011;13386;24.786;110.488;2023-06-22T13:39:44;13.25;;;2.50;;
22883;SDS011;13386;24.786;110.488;2023-06-22T13:42:16;9.88;;;2.35;;
22883;SDS011;13386;24.786;110.488;2023-06-22T13:44:47;13.75;;;2.65;;
22883;SDS011;13386;24.786;110.488;2023-06-22T13:47:18;12.88;;;2.45;;
22883;SDS011;13386;24.786;110.488;2023-06-22T13:49:50;10.90;;;2.80;;
22883;SDS011;13386;24.786;110.488;2023-06-22T13:52:22;9.45;;;2.72;;
22883;SDS011;13386;24.786;110.488;2023-06-22T13:54:54;18.48;;;2.65;;
22883;SDS011;13386;24.786;110.488;2023-06-22T13:57:27;9.15;;;2.70;;
22883;SDS011;13386;24.786;110.488;2023-06-22T14:00:00;7.88;;;2.80;;
22883;SDS011;13386;24.786;110.488;2023-06-22T14:02:39;8.48;;;2.25;;
22883;SDS011;13386;24.786;110.488;2023-06-22T14:05:13;12.50;;;2.90;;
22883;SDS011;13386;24.786;110.488;2023-06-22T14:07:43;16.55;;;2.70;;
22883;SDS011;13386;24.786;110.488;2023-06-22T14:10:15;8.65;;;2.58;;
22883;SDS011;13386;24.786;110.488;2023-06-22T14:12:52;12.93;;;2.50;;
22883;SDS011;13386;24.786;110.488;2023-06-22T14:15:25;12.35;;;2.90;;
22883;SDS011;13386;24.786;110.488;2023-06-22T14:17:58;10.50;;;3.15;;
22883;SDS011;13386;24.786;110.488;2023-06-22T14:20:30;11.85;;;4.05;;
22883;SDS011;13386;24.786;110.488;2023-06-22T14:23:05;7.57;;;3.05;;
22883;SDS011;13386;24.786;110.488;2023-06-22T14:25:36;11.27;;;3.35;;
22883;SDS011;13386;24.786;110.488;2023-06-22T14:28:11;9.05;;;2.92;;
22883;SDS011;13386;24.786;110.488;2023-06-22T14:30:44;11.15;;;2.85;;
22883;SDS011;13386;24.786;110.488;2023-06-22T14:33:16;10.88;;;3.22;;
22883;SDS011;13386;24.786;110.488;2023-06-22T14:35:49;17.15;;;3.55;;
22883;SDS011;13386;24.786;110.488;2023-06-22T14:38:20;11.35;;;3.08;;
22883;SDS011;13386;24.786;110.488;2023-06-22T14:40:51;10.35;;;3.28;;
22883;SDS011;13386;24.786;110.488;2023-06-22T14:43:24;15.55;;;3.22;;
22883;SDS011;13386;24.786;110.488;2023-06-22T14:46:02;11.95;;;2.78;;
22883;SDS011;13386;24.786;110.488;2023-06-22T14:48:34;9.80;;;2.90;;
22883;SDS011;13386;24.786;110.488;2023-06-22T14:51:04;9.85;;;2.78;;